Time;durP1;ratioP1;P1;durP2;ratioP2;P2;SDS_P1;SDS_P2;PMS_P1;PMS_P2;Temp;Humidity;BMP_temperature;BMP_pressure;BME280_temperature;BME280_humidity;BME280_pressure;Samples;Min_cycle;Max_cycle;Signal;HPM_P1;HPM_P2
2021/03/07 00:00:13;;;;;;;;;;;;;;;16.43;61.26;102471.50;5034820;28;797;-58
2021/03/07 00:02:39;;;;;;;;;;;;;;;16.42;61.96;102472.44;5034393;28;1277;-59
2021/03/07 00:05:05;;;;;;;;;;;;;;;16.41;61.28;102470.72;5034354;28;1898;-59
2021/03/07 00:07:30;;;;;;;;;;;;;;;16.41;60.55;102476.06;5035133;28;804;-59
2021/03/07 00:09:55;;;;;;;;;;;;;;;16.41;61.72;102475.16;5034582;28;737;-60
2021/03/07 00:12:20;;;;;;;;;;;;;;;16.40;60.59;102463.63;5034429;28;1325;-59
2021/03/07 00:14:46;;;;;;;;;;;;;;;16.41;61.28;102469.84;5034365;28;810;-56
2021/03/07 00:17:11;;;;;;;;;;;;;;;16.42;61.18;102468.91;5034673;28;867;-57
2021/03/07 00:19:36;;;;;;;;;;;;;;;16.46;60.83;102467.81;5034542;28;789;-56
2021/03/07 00:22:02;;;;;;;;;;;;;;;16.44;60.46;102464.34;5034289;28;821;-56
2021/03/07 00:24:27;;;;;;;;;;;;;;;16.44;61.70;102464.34;5034139;28;1975;-56
2021/03/07 00:26:52;;;;;;;;;;;;;;;16.45;60.96;102455.38;5034598;28;809;-59
2021/03/07 00:29:17;;;;;;;;;;;;;;;16.47;60.51;102474.84;5034474;28;813;-59
2021/03/07 00:31:43;;;;;;;;;;;;;;;16.45;61.45;102455.38;5034380;28;817;-56
2021/03/07 00:34:08;;;;;;;;;;;;;;;16.44;60.96;102453.66;5034491;28;792;-56
2021/03/07 00:36:33;;;;;;;;;;;;;;;16.47;60.28;102464.19;5034174;28;730;-59
2021/03/07 00:38:58;;;;;;;;;;;;;;;16.42;61.41;102450.22;5034423;28;811;-59
2021/03/07 00:41:24;;;;;;;;;;;;;;;16.42;61.32;102458.22;5034288;28;789;-56
2021/03/07 00:43:49;;;;;;;;;;;;;;;16.40;60.76;102454.78;5034094;28;1959;-59
2021/03/07 00:46:14;;;;;;;;;;;;;;;16.44;60.42;102464.34;5034290;28;805;-59
2021/03/07 00:48:39;;;;;;;;;;;;;;;16.38;61.37;102459.31;5037943;28;816;-59
2021/03/07 00:51:05;;;;;;;;;;;;;;;16.40;60.75;102454.78;5037890;28;837;-56
2021/03/07 00:53:30;;;;;;;;;;;;;;;16.40;61.06;102460.09;5037879;28;825;-59
2021/03/07 00:55:55;;;;;;;;;;;;;;;16.41;60.99;102465.38;5037396;28;864;-59
2021/03/07 00:58:20;;;;;;;;;;;;;;;16.38;61.48;102456.66;5038596;28;746;-56
2021/03/07 01:00:48;;;;;;;;;;;;;;;16.42;61.62;102467.09;5037840;28;1301;-56
2021/03/07 01:03:13;;;;;;;;;;;;;;;16.37;60.89;102442.41;5037319;28;833;-59
2021/03/07 01:05:39;;;;;;;;;;;;;;;16.37;61.19;102452.25;5037816;28;1894;-56
2021/03/07 01:08:04;;;;;;;;;;;;;;;16.39;61.69;102442.34;5037661;28;801;-56
2021/03/07 01:10:38;;;;;;;;;;;;;;;16.36;60.39;102439.84;5037135;28;1726;-59
2021/03/07 01:13:05;;;;;;;;;;;;;;;16.36;60.96;102430.03;5037197;28;826;-59
2021/03/07 01:15:30;;;;;;;;;;;;;;;16.35;61.40;102430.09;5037414;28;739;-56
2021/03/07 01:17:56;;;;;;;;;;;;;;;16.37;61.90;102433.56;5037252;28;747;-56
2021/03/07 01:20:22;;;;;;;;;;;;;;;16.36;60.81;102443.38;5037019;28;757;-56
2021/03/07 01:22:47;;;;;;;;;;;;;;;16.35;60.45;102443.44;5037047;28;821;-57
2021/03/07 01:25:12;;;;;;;;;;;;;;;16.35;61.78;102433.63;5037381;28;1968;-56
2021/03/07 01:27:38;;;;;;;;;;;;;;;16.38;60.63;102443.31;5037021;28;773;-59
2021/03/07 01:30:05;;;;;;;;;;;;;;;16.34;61.75;102436.41;5036902;28;887;-59
2021/03/07 01:32:30;;;;;;;;;;;;;;;16.36;61.91;102430.03;5036727;28;995;-59
2021/03/07 01:34:55;;;;;;;;;;;;;;;16.34;61.59;102434.56;5037107;28;828;-59
2021/03/07 01:37:21;;;;;;;;;;;;;;;16.32;61.34;102427.59;5037032;28;800;-56
2021/03/07 01:39:46;;;;;;;;;;;;;;;16.29;61.76;102421.47;5037056;28;781;-56
2021/03/07 01:42:11;;;;;;;;;;;;;;;16.33;61.37;102421.31;5036966;28;834;-56
2021/03/07 01:44:37;;;;;;;;;;;;;;;16.35;60.47;102414.06;5036437;28;1939;-59
2021/03/07 01:47:03;;;;;;;;;;;;;;;16.34;60.76;102415.88;5036896;28;751;-59
2021/03/07 01:49:28;;;;;;;;;;;;;;;16.36;60.65;102410.47;5036771;28;842;-56
2021/03/07 01:51:53;;;;;;;;;;;;;;;16.38;60.40;102416.59;5036761;28;788;-59
2021/03/07 01:54:18;;;;;;;;;;;;;;;16.34;60.84;102407.03;5036672;28;862;-59
2021/03/07 01:56:46;;;;;;;;;;;;;;;16.35;60.98;102406.06;5036308;28;1072;-56
2021/03/07 01:59:11;;;;;;;;;;;;;;;16.35;61.83;102416.75;5036112;28;840;-59
2021/03/07 02:01:37;;;;;;;;;;;;;;;16.34;61.52;102399.00;5036501;28;1396;-59
2021/03/07 02:04:02;;;;;;;;;;;;;;;16.32;61.49;102396.41;5036430;28;1957;-56
2021/03/07 02:06:27;;;;;;;;;;;;;;;16.32;61.41;102390.22;5036443;28;827;-56
2021/03/07 02:08:52;;;;;;;;;;;;;;;16.30;60.87;102399.16;5036378;28;800;-56
2021/03/07 02:11:18;;;;;;;;;;;;;;;16.32;61.64;102400.91;5035977;28;1144;-56
2021/03/07 02:13:44;;;;;;;;;;;;;;;16.30;60.51;102393.81;5035996;28;837;-56
2021/03/07 02:16:09;;;;;;;;;;;;;;;16.29;60.49;102392.09;5018725;28;841;-56
2021/03/07 02:18:36;;;;;;;;;;;;;;;16.32;60.69;102407.09;5036231;28;751;-56
2021/03/07 02:21:03;;;;;;;;;;;;;;;16.29;60.88;102396.56;5036160;28;783;-56
2021/03/07 02:23:30;;;;;;;;;;;;;;;16.28;60.40;102393.03;5035821;28;886;-56
2021/03/07 02:25:55;;;;;;;;;;;;;;;16.27;61.05;102383.31;5035663;28;1914;-56
2021/03/07 02:28:23;;;;;;;;;;;;;;;16.27;60.50;102404.66;5035752;28;833;-56
2021/03/07 02:30:48;;;;;;;;;;;;;;;16.28;60.45;102385.03;5035961;28;818;-56
2021/03/07 02:33:18;;;;;;;;;;;;;;;16.28;60.29;102390.38;5035946;28;845;-56
2021/03/07 02:35:48;;;;;;;;;;;;;;;16.24;60.40;102375.44;5036070;28;742;-56
2021/03/07 02:38:16;;;;;;;;;;;;;;;16.26;60.47;102378.06;5035811;28;829;-55
2021/03/07 02:40:41;;;;;;;;;;;;;;;16.27;60.63;102382.44;5035854;28;926;-59
2021/03/07 02:43:10;;;;;;;;;;;;;;;16.22;60.60;102373.81;5035481;28;872;-56
2021/03/07 02:45:36;;;;;;;;;;;;;;;16.25;60.81;102374.53;5035658;28;1890;-56
2021/03/07 02:48:01;;;;;;;;;;;;;;;16.26;60.47;102384.25;5035492;28;829;-56
2021/03/07 02:50:28;;;;;;;;;;;;;;;16.23;60.37;102376.38;5035668;28;776;-59
2021/03/07 02:53:01;;;;;;;;;;;;;;;16.22;60.54;102373.81;5035653;28;869;-59
2021/03/07 02:55:28;;;;;;;;;;;;;;;16.24;60.54;102370.09;5035448;28;758;-59
2021/03/07 02:57:54;;;;;;;;;;;;;;;16.21;61.06;102367.59;5035516;28;811;-55
2021/03/07 03:02:53;;;;;;;;;;;;;;;16.21;61.31;102367.59;5030987;28;1747;-46
2021/03/07 03:05:19;;;;;;;;;;;;;;;16.23;61.04;102364.84;5033927;28;1960;-45
2021/03/07 03:07:44;;;;;;;;;;;;;;;16.25;60.89;102376.31;5034226;28;917;-45
2021/03/07 03:12:38;;;;;;;;;;;;;;;16.25;61.55;102366.50;5032482;28;1353;-56
2021/03/07 03:15:04;;;;;;;;;;;;;;;16.24;61.57;102367.44;5034981;28;859;-56
2021/03/07 03:17:29;;;;;;;;;;;;;;;16.29;60.48;102385.88;5035212;28;753;-56
2021/03/07 03:19:55;;;;;;;;;;;;;;;16.23;60.92;102378.19;5035231;28;782;-56
2021/03/07 03:22:20;;;;;;;;;;;;;;;16.22;60.76;102374.66;5035172;28;812;-58
2021/03/07 03:24:46;;;;;;;;;;;;;;;16.21;60.55;102375.59;5034733;28;1906;-56
2021/03/07 03:27:13;;;;;;;;;;;;;;;16.22;61.42;102373.81;5034894;28;806;-56
2021/03/07 03:29:39;;;;;;;;;;;;;;;16.25;60.89;102382.53;5032810;28;750;-59
2021/03/07 03:32:05;;;;;;;;;;;;;;;16.21;61.29;102370.25;5034502;28;751;-56
2021/03/07 03:34:30;;;;;;;;;;;;;;;16.23;61.74;102371.03;5034739;28;844;-56
2021/03/07 03:36:55;;;;;;;;;;;;;;;16.24;60.61;102383.47;5034975;28;966;-59
2021/03/07 03:39:22;;;;;;;;;;;;;;;16.20;61.41;102371.22;5034675;28;800;-56
2021/03/07 03:41:48;;;;;;;;;;;;;;;16.19;60.28;102368.63;5035001;28;815;-59
2021/03/07 03:44:15;;;;;;;;;;;;;;;16.19;61.58;102384.63;5034540;28;1961;-56
2021/03/07 03:46:43;;;;;;;;;;;;;;;16.18;60.61;102365.09;5034581;28;880;-59
2021/03/07 03:49:14;;;;;;;;;;;;;;;16.17;61.56;102367.81;5034934;28;772;-59
2021/03/07 03:51:42;;;;;;;;;;;;;;;16.16;61.74;102358.09;5034821;28;814;-56
2021/03/07 03:54:08;;;;;;;;;;;;;;;16.17;61.55;102366.00;5034911;28;811;-59
2021/03/07 03:56:35;;;;;;;;;;;;;;;16.17;60.29;102357.16;5034798;28;756;-59
2021/03/07 03:59:01;;;;;;;;;;;;;;;16.17;61.07;102365.16;5034800;28;748;-57
2021/03/07 04:01:26;;;;;;;;;;;;;;;16.16;60.66;102358.97;5034432;28;1429;-59
2021/03/07 04:03:53;;;;;;;;;;;;;;;16.16;61.65;102364.31;5034370;28;1951;-59
2021/03/07 04:06:25;;;;;;;;;;;;;;;16.18;60.76;102367.75;5034804;28;931;-56
2021/03/07 04:08:52;;;;;;;;;;;;;;;16.15;61.84;102357.22;5034451;28;758;-56
2021/03/07 04:11:17;;;;;;;;;;;;;;;16.13;61.35;102361.78;5034200;28;1197;-59
2021/03/07 04:13:43;;;;;;;;;;;;;;;16.14;61.84;102360.84;5034417;28;753;-59
2021/03/07 04:16:09;;;;;;;;;;;;;;;16.13;61.17;102369.78;5034329;28;781;-59
2021/03/07 04:18:34;;;;;;;;;;;;;;;16.14;61.76;102376.84;5034605;28;755;-56
2021/03/07 04:21:00;;;;;;;;;;;;;;;16.13;60.31;102361.78;5035817;28;835;-59
2021/03/07 04:23:26;;;;;;;;;;;;;;;16.15;61.30;102359.03;5037879;28;781;-56
2021/03/07 04:25:51;;;;;;;;;;;;;;;16.15;61.52;102361.72;5038063;28;1977;-57
2021/03/07 04:28:17;;;;;;;;;;;;;;;16.15;60.79;102370.56;5038007;28;924;-56
2021/03/07 04:30:42;;;;;;;;;;;;;;;16.14;61.77;102366.19;5038355;28;804;-56
2021/03/07 04:33:08;;;;;;;;;;;;;;;16.11;61.19;102363.66;5038044;28;960;-59
2021/03/07 04:35:34;;;;;;;;;;;;;;;16.15;61.66;102351.03;5038197;28;775;-59
2021/03/07 04:38:04;;;;;;;;;;;;;;;16.17;60.28;102359.81;5037857;28;750;-59
2021/03/07 04:40:30;;;;;;;;;;;;;;;16.16;61.53;102347.44;5037990;28;859;-56
2021/03/07 04:42:56;;;;;;;;;;;;;;;16.14;60.18;102344.84;5038002;28;811;-59
2021/03/07 04:45:21;;;;;;;;;;;;;;;16.13;61.69;102355.59;5038031;28;1897;-59
2021/03/07 04:47:47;;;;;;;;;;;;;;;16.14;60.42;102360.84;5037917;28;979;-59
2021/03/07 04:50:13;;;;;;;;;;;;;;;16.13;60.55;102352.91;5037998;28;822;-59
2021/03/07 04:52:38;;;;;;;;;;;;;;;16.14;61.58;102355.50;5037883;28;727;-59
2021/03/07 04:55:04;;;;;;;;;;;;;;;16.16;60.28;102358.97;5037616;28;902;-59
2021/03/07 04:57:29;;;;;;;;;;;;;;;16.12;60.75;102356.53;5037574;28;796;-59
2021/03/07 04:59:55;;;;;;;;;;;;;;;16.10;61.55;102357.47;5037796;28;777;-56
2021/03/07 05:02:20;;;;;;;;;;;;;;;16.16;60.36;102363.44;5037357;28;1345;-59
2021/03/07 05:04:45;;;;;;;;;;;;;;;16.11;60.69;102361.00;5037180;28;1965;-59
2021/03/07 05:07:10;;;;;;;;;;;;;;;16.10;60.60;102359.28;5037685;28;745;-56
2021/03/07 05:09:35;;;;;;;;;;;;;;;16.09;61.20;102357.53;5037358;28;742;-59
2021/03/07 05:12:01;;;;;;;;;;;;;;;16.09;61.43;102353.09;5037456;28;1283;-59
2021/03/07 05:14:26;;;;;;;;;;;;;;;16.08;60.78;102363.84;5037202;28;805;-59
2021/03/07 05:16:52;;;;;;;;;;;;;;;16.06;61.42;102355.91;5037418;28;816;-59
2021/03/07 05:19:17;;;;;;;;;;;;;;;16.08;60.96;102358.50;5037440;28;749;-59
2021/03/07 05:21:42;;;;;;;;;;;;;;;16.11;61.09;102363.66;5037155;28;749;-56
2021/03/07 05:24:08;;;;;;;;;;;;;;;16.10;60.34;102367.28;5036962;28;1977;-59
2021/03/07 05:26:33;;;;;;;;;;;;;;;16.06;61.54;102363.03;5037109;28;872;-56
2021/03/07 05:28:58;;;;;;;;;;;;;;;16.08;61.42;102362.00;5037165;28;829;-56
2021/03/07 05:31:24;;;;;;;;;;;;;;;16.08;60.71;102355.81;5037186;28;882;-56
2021/03/07 05:33:49;;;;;;;;;;;;;;;16.08;60.39;102362.00;5036220;28;888;-59
2021/03/07 05:36:14;;;;;;;;;;;;;;;16.11;60.59;102355.66;5037123;28;733;-59
2021/03/07 05:38:40;;;;;;;;;;;;;;;16.08;60.81;102350.47;5036671;28;904;-59
2021/03/07 05:41:05;;;;;;;;;;;;;;;16.06;61.28;102361.22;5036926;28;732;-56
2021/03/07 05:43:31;;;;;;;;;;;;;;;16.09;61.01;102369.09;5036878;28;815;-59
2021/03/07 05:45:56;;;;;;;;;;;;;;;16.09;61.14;102373.53;5037134;28;1894;-59
2021/03/07 05:48:21;;;;;;;;;;;;;;;16.10;61.09;102377.97;5036906;28;892;-56
2021/03/07 05:50:47;;;;;;;;;;;;;;;16.08;61.48;102371.84;5036563;28;871;-56
2021/03/07 05:53:12;;;;;;;;;;;;;;;16.05;60.39;102366.63;5036668;28;749;-56
2021/03/07 05:55:38;;;;;;;;;;;;;;;16.06;60.77;102376.38;5036791;28;806;-59
2021/03/07 05:58:04;;;;;;;;;;;;;;;16.06;60.46;102369.25;5036349;28;821;-59
2021/03/07 06:00:29;;;;;;;;;;;;;;;16.04;61.47;102359.59;5036876;28;836;-59
2021/03/07 06:02:55;;;;;;;;;;;;;;;16.07;60.43;102368.28;5036490;28;1472;-56
2021/03/07 06:05:20;;;;;;;;;;;;;;;16.08;61.52;102361.16;5036413;28;1901;-59
2021/03/07 06:07:49;;;;;;;;;;;;;;;16.07;61.38;102367.44;5036144;28;846;-56
2021/03/07 06:10:17;;;;;;;;;;;;;;;16.07;60.94;102370.09;5036179;28;1191;-55
2021/03/07 06:12:43;;;;;;;;;;;;;;;16.07;60.50;102370.94;5036058;28;884;-56
2021/03/07 06:15:09;;;;;;;;;;;;;;;16.11;60.87;102355.66;5036360;28;775;-56
2021/03/07 06:17:44;;;;;;;;;;;;;;;16.12;60.89;102361.88;5036122;28;789;-59
2021/03/07 06:20:17;;;;;;;;;;;;;;;16.11;61.52;102363.66;5036289;28;826;-59
2021/03/07 06:22:51;;;;;;;;;;;;;;;16.08;60.77;102367.34;5036047;28;800;-59
2021/03/07 06:25:16;;;;;;;;;;;;;;;16.07;61.42;102360.28;5035775;28;1963;-59
2021/03/07 06:27:41;;;;;;;;;;;;;;;16.11;61.02;102363.66;5035831;28;849;-56
2021/03/07 06:30:10;;;;;;;;;;;;;;;16.10;61.36;102353.94;5035778;28;859;-59
2021/03/07 06:32:39;;;;;;;;;;;;;;;16.09;60.87;102341.53;5035696;28;806;-59
2021/03/07 06:35:05;;;;;;;;;;;;;;;16.09;60.95;102346.88;5035607;28;874;-59
2021/03/07 06:37:31;;;;;;;;;;;;;;;16.10;60.70;102352.13;5035937;28;757;-59
2021/03/07 06:39:56;;;;;;;;;;;;;;;16.10;60.90;102343.25;5035671;28;781;-59
2021/03/07 06:42:21;;;;;;;;;;;;;;;16.10;60.81;102353.94;5035774;28;764;-58
2021/03/07 06:44:56;;;;;;;;;;;;;;;16.10;60.87;102343.25;5034896;28;1894;-59
2021/03/07 06:47:21;;;;;;;;;;;;;;;16.13;60.25;102351.09;5035836;28;759;-59
2021/03/07 06:49:47;;;;;;;;;;;;;;;16.10;60.65;102340.59;5035761;28;765;-56
2021/03/07 06:52:15;;;;;;;;;;;;;;;16.15;61.21;102349.22;5035686;28;765;-56
2021/03/07 06:54:41;;;;;;;;;;;;;;;16.11;60.62;102336.97;5035286;28;835;-56
2021/03/07 06:57:07;;;;;;;;;;;;;;;16.16;61.06;102353.63;5035573;28;779;-56
2021/03/07 06:59:32;;;;;;;;;;;;;;;16.11;60.59;102336.97;5035264;28;850;-59
2021/03/07 07:01:58;;;;;;;;;;;;;;;16.13;60.06;102348.44;5035476;28;1325;-59
2021/03/07 07:04:24;;;;;;;;;;;;;;;16.17;60.28;102349.16;5034978;28;1903;-56
2021/03/07 07:07:07;;;;;;;;;;;;;;;16.12;61.13;102338.72;5035420;28;785;-59
2021/03/07 07:09:32;;;;;;;;;;;;;;;16.16;61.15;102353.63;5035025;28;996;-56
2021/03/07 07:11:58;;;;;;;;;;;;;;;16.14;60.56;102342.16;5035089;28;1127;-59
2021/03/07 07:14:30;;;;;;;;;;;;;;;16.13;59.88;102345.75;5035020;28;817;-56
2021/03/07 07:16:55;;;;;;;;;;;;;;;16.17;59.77;102342.00;5035265;28;819;-58
2021/03/07 07:19:21;;;;;;;;;;;;;;;16.21;59.88;102346.22;5035161;28;870;-59
2021/03/07 07:21:47;;;;;;;;;;;;;;;16.21;60.02;102340.88;5034865;28;856;-59
2021/03/07 07:24:12;;;;;;;;;;;;;;;16.23;60.55;102339.00;5035351;28;1906;-55
2021/03/07 07:26:38;;;;;;;;;;;;;;;16.23;59.68;102325.66;5035128;28;1081;-60
2021/03/07 07:29:04;;;;;;;;;;;;;;;16.27;60.86;102324.59;5034862;28;718;-56
2021/03/07 07:31:31;;;;;;;;;;;;;;;16.29;60.76;102325.38;5035358;28;1549;-59
2021/03/07 07:34:01;;;;;;;;;;;;;;;16.33;59.77;102330.53;5034791;28;797;-60
2021/03/07 07:36:34;;;;;;;;;;;;;;;16.35;59.00;102325.97;5034975;28;824;-56
2021/03/07 07:39:00;;;;;;;;;;;;;;;16.36;59.84;102322.38;5033926;28;883;-57
2021/03/07 07:41:34;;;;;;;;;;;;;;;16.41;59.81;102326.53;5034818;28;817;-60
2021/03/07 07:44:00;;;;;;;;;;;;;;;16.40;59.72;102308.78;5034968;28;1910;-60
2021/03/07 07:46:26;;;;;;;;;;;;;;;16.40;59.18;102307.91;5034931;28;844;-60
2021/03/07 07:48:51;;;;;;;;;;;;;;;16.43;58.87;102299.72;5034694;28;777;-56
2021/03/07 07:51:28;;;;;;;;;;;;;;;16.43;59.71;102299.72;5034881;28;860;-56
2021/03/07 07:53:54;;;;;;;;;;;;;;;16.42;59.20;102288.19;5034636;28;710;-59
2021/03/07 07:56:32;;;;;;;;;;;;;;;16.47;59.87;102285.28;5036293;28;813;-57
2021/03/07 07:58:57;;;;;;;;;;;;;;;16.47;60.20;102282.59;5038594;28;882;-56
2021/03/07 08:01:42;;;;;;;;;;;;;;;16.52;59.07;102272.56;5038482;28;1313;-56
2021/03/07 08:04:28;;;;;;;;;;;;;;;16.50;58.92;102269.09;5038282;28;1980;-56
2021/03/07 08:06:56;;;;;;;;;;;;;;;16.52;58.85;102269.88;5038232;28;1565;-60
2021/03/07 08:09:37;;;;;;;;;;;;;;;16.50;59.20;102255.75;5038748;28;856;-56
2021/03/07 08:12:21;;;;;;;;;;;;;;;16.58;59.37;102245.50;5038468;28;1153;-56
2021/03/07 08:14:46;;;;;;;;;;;;;;;16.60;60.02;102240.94;5038429;28;809;-60
2021/03/07 08:17:31;;;;;;;;;;;;;;;16.59;58.92;102243.69;5038534;28;842;-59
2021/03/07 08:19:56;;;;;;;;;;;;;;;16.58;59.51;102226.81;5038005;28;1068;-60
2021/03/07 08:22:22;;;;;;;;;;;;;;;16.58;58.77;102226.81;5038501;28;800;-60
2021/03/07 08:24:47;;;;;;;;;;;;;;;16.59;59.87;102219.66;5038363;28;1972;-60
2021/03/07 08:27:31;;;;;;;;;;;;;;;16.60;59.11;102214.25;5038370;28;740;-56
2021/03/07 08:29:56;;;;;;;;;;;;;;;16.65;59.68;102214.88;5037952;28;844;-56
2021/03/07 08:32:27;;;;;;;;;;;;;;;16.73;58.93;102205.53;5038042;28;988;-57
2021/03/07 08:34:53;;;;;;;;;;;;;;;16.86;59.54;102193.25;5038308;28;782;-56
2021/03/07 08:37:19;;;;;;;;;;;;;;;16.99;59.66;102202.31;5037940;28;864;-60
2021/03/07 08:39:44;;;;;;;;;;;;;;;17.16;59.17;102184.44;5038173;28;862;-59
2021/03/07 08:42:09;;;;;;;;;;;;;;;17.34;58.13;102183.38;5037769;28;940;-59
2021/03/07 08:44:35;;;;;;;;;;;;;;;17.53;57.61;102183.16;5038197;28;1886;-56
2021/03/07 08:47:01;;;;;;;;;;;;;;;17.68;57.41;102178.69;5038067;28;793;-56
2021/03/07 08:49:28;;;;;;;;;;;;;;;17.88;57.13;102178.34;5038201;28;1579;-58
2021/03/07 08:51:57;;;;;;;;;;;;;;;18.07;56.89;102166.53;5037906;28;763;-59
2021/03/07 08:54:23;;;;;;;;;;;;;;;18.30;56.42;102157.03;5037900;28;799;-57
2021/03/07 08:56:49;;;;;;;;;;;;;;;18.54;55.83;102170.69;5037705;28;797;-56
2021/03/07 08:59:15;;;;;;;;;;;;;;;18.73;55.59;102164.16;5037845;28;799;-57
2021/03/07 09:01:40;;;;;;;;;;;;;;;18.90;55.26;102155.94;5037667;28;1324;-56
2021/03/07 09:04:07;;;;;;;;;;;;;;;18.96;55.09;102146.59;5037268;28;1894;-58
2021/03/07 09:06:36;;;;;;;;;;;;;;;19.07;54.74;102150.28;5037581;28;846;-57
2021/03/07 09:09:02;;;;;;;;;;;;;;;19.11;54.90;102152.78;5036564;28;804;-56
2021/03/07 09:11:28;;;;;;;;;;;;;;;19.13;54.71;102158.91;5037422;28;1154;-56
2021/03/07 09:13:53;;;;;;;;;;;;;;;19.10;54.92;102141.19;5037282;28;823;-60
2021/03/07 09:16:18;;;;;;;;;;;;;;;19.11;54.87;102150.09;5037136;28;872;-60
2021/03/07 09:18:43;;;;;;;;;;;;;;;19.02;55.33;102149.75;5037118;28;881;-60
2021/03/07 09:21:10;;;;;;;;;;;;;;;18.95;55.34;102135.03;5020064;28;834;-60
2021/03/07 09:23:43;;;;;;;;;;;;;;;18.83;55.63;102128.66;5019702;28;1144;-60
2021/03/07 09:26:09;;;;;;;;;;;;;;;18.83;55.98;102134.00;5036992;28;1910;-60
2021/03/07 09:28:53;;;;;;;;;;;;;;;18.91;56.04;102132.66;5036985;28;924;-56
2021/03/07 09:31:20;;;;;;;;;;;;;;;18.85;55.83;102125.88;5036878;28;846;-60
2021/03/07 09:33:46;;;;;;;;;;;;;;;18.79;56.13;102129.81;5037126;28;846;-56
2021/03/07 09:36:12;;;;;;;;;;;;;;;18.78;56.14;102125.41;5037075;28;801;-56
2021/03/07 09:38:54;;;;;;;;;;;;;;;18.65;56.11;102111.06;5036775;28;839;-56
2021/03/07 09:41:30;;;;;;;;;;;;;;;18.59;56.53;102124.88;5036978;28;831;-57
2021/03/07 09:43:56;;;;;;;;;;;;;;;18.61;56.45;102117.59;5037188;28;775;-60
2021/03/07 09:46:21;;;;;;;;;;;;;;;18.62;56.29;102111.25;5036796;28;1973;-56
2021/03/07 09:48:47;;;;;;;;;;;;;;;18.51;56.57;102109.28;5036889;28;855;-60
2021/03/07 09:51:14;;;;;;;;;;;;;;;18.51;56.52;102101.25;5036468;28;896;-59
2021/03/07 09:53:40;;;;;;;;;;;;;;;18.47;56.45;102116.66;5036539;28;817;-60
2021/03/07 09:56:06;;;;;;;;;;;;;;;18.44;57.23;102110.63;5036755;28;760;-56
2021/03/07 09:58:35;;;;;;;;;;;;;;;18.37;56.72;102103.97;5036642;28;749;-60
2021/03/07 10:01:03;;;;;;;;;;;;;;;18.29;57.54;102094.59;5036295;28;1330;-57
2021/03/07 10:03:30;;;;;;;;;;;;;;;18.34;57.21;102098.81;5036510;28;780;-60
2021/03/07 10:06:02;;;;;;;;;;;;;;;18.37;56.71;102101.31;5036428;28;1965;-56
2021/03/07 10:08:31;;;;;;;;;;;;;;;18.37;56.94;102094.13;5036237;28;779;-60
2021/03/07 10:11:06;;;;;;;;;;;;;;;18.31;57.48;102093.66;5036140;28;1225;-56
2021/03/07 10:13:32;;;;;;;;;;;;;;;18.22;57.79;102077.22;5036114;28;801;-60
2021/03/07 10:15:57;;;;;;;;;;;;;;;18.24;57.63;102086.03;5036636;28;838;-59
2021/03/07 10:18:22;;;;;;;;;;;;;;;18.29;57.84;102083.03;5036034;28;1516;-60
2021/03/07 10:20:48;;;;;;;;;;;;;;;18.25;57.84;102076.16;5036052;28;813;-60
2021/03/07 10:23:14;;;;;;;;;;;;;;;18.29;57.48;102075.84;5036204;28;828;-60
2021/03/07 10:25:45;;;;;;;;;;;;;;;18.29;57.36;102070.50;5035766;28;1981;-57
2021/03/07 10:28:19;;;;;;;;;;;;;;;18.33;57.25;102078.34;5036156;28;808;-56
2021/03/07 10:30:44;;;;;;;;;;;;;;;18.40;57.41;102052.88;5035882;28;886;-56
2021/03/07 10:33:19;;;;;;;;;;;;;;;18.42;57.26;102049.16;5035822;28;870;-56
2021/03/07 10:36:03;;;;;;;;;;;;;;;18.43;57.83;102066.94;5035966;28;812;-56
2021/03/07 10:38:29;;;;;;;;;;;;;;;18.40;57.44;102048.41;5035907;28;858;-56
2021/03/07 10:40:55;;;;;;;;;;;;;;;18.42;57.89;102042.91;5035682;28;746;-56
2021/03/07 10:43:20;;;;;;;;;;;;;;;18.45;56.99;102043.59;5035834;28;773;-60
2021/03/07 10:45:45;;;;;;;;;;;;;;;18.49;56.96;102036.22;5035738;28;1894;-60
2021/03/07 10:48:12;;;;;;;;;;;;;;;18.51;57.02;102031.63;5035736;28;782;-60
2021/03/07 10:50:41;;;;;;;;;;;;;;;18.45;57.17;102026.66;5035489;28;796;-60
2021/03/07 10:53:06;;;;;;;;;;;;;;;18.47;57.54;102014.03;5035434;28;879;-56
2021/03/07 10:55:31;;;;;;;;;;;;;;;18.51;57.67;102012.84;5018000;28;1146;-60
2021/03/07 10:57:57;;;;;;;;;;;;;;;18.49;57.13;101990.69;5035609;28;745;-56
2021/03/07 11:00:25;;;;;;;;;;;;;;;18.53;57.14;102005.59;5035525;28;745;-56
2021/03/07 11:02:52;;;;;;;;;;;;;;;18.52;57.20;102001.16;5035215;28;1415;-60
2021/03/07 11:05:18;;;;;;;;;;;;;;;18.57;57.49;101999.06;5034966;28;1893;-56
2021/03/07 11:07:44;;;;;;;;;;;;;;;18.57;57.10;101998.22;5035421;28;838;-56
2021/03/07 11:10:11;;;;;;;;;;;;;;;18.55;57.43;101982.22;5035411;28;829;-60
2021/03/07 11:12:36;;;;;;;;;;;;;;;18.57;56.79;101971.41;5034934;28;1281;-56
2021/03/07 11:15:03;;;;;;;;;;;;;;;18.54;57.26;101966.25;5034977;28;908;-59
2021/03/07 11:17:28;;;;;;;;;;;;;;;18.52;56.94;101966.34;5035219;28;789;-56
2021/03/07 11:19:53;;;;;;;;;;;;;;;18.50;57.50;101968.28;5035239;28;800;-60
2021/03/07 11:22:19;;;;;;;;;;;;;;;18.49;57.24;101945.13;5035230;28;761;-56
2021/03/07 11:24:44;;;;;;;;;;;;;;;18.46;57.71;101942.66;5034849;28;1981;-59
2021/03/07 11:27:09;;;;;;;;;;;;;;;18.48;57.67;101952.31;5035013;28;789;-59
2021/03/07 11:29:34;;;;;;;;;;;;;;;18.49;57.74;101942.47;5034759;28;794;-56
2021/03/07 11:32:00;;;;;;;;;;;;;;;18.50;57.38;101944.16;5034617;28;738;-56
2021/03/07 11:34:25;;;;;;;;;;;;;;;18.54;57.45;101939.47;5035098;28;1494;-59
2021/03/07 11:36:50;;;;;;;;;;;;;;;18.54;57.08;101929.59;5035106;28;784;-56
2021/03/07 11:39:15;;;;;;;;;;;;;;;18.52;57.10;101926.16;5034682;28;847;-56
2021/03/07 11:41:41;;;;;;;;;;;;;;;18.54;57.63;101929.59;5035202;28;769;-60
2021/03/07 11:44:06;;;;;;;;;;;;;;;18.53;57.31;101911.81;5034789;28;805;-60
2021/03/07 11:46:31;;;;;;;;;;;;;;;18.43;58.00;101911.59;5034885;28;758;-60
2021/03/07 11:48:56;;;;;;;;;;;;;;;18.40;58.40;101910.94;5034923;28;745;-56
2021/03/07 11:51:22;;;;;;;;;;;;;;;18.32;57.90;101886.50;5034888;28;809;-56
2021/03/07 11:53:47;;;;;;;;;;;;;;;18.33;58.25;101898.94;5034664;28;802;-60
2021/03/07 11:56:12;;;;;;;;;;;;;;;18.31;57.99;101884.78;5034521;28;848;-56
2021/03/07 11:58:37;;;;;;;;;;;;;;;18.27;58.06;101893.03;5034844;28;855;-58
2021/03/07 12:01:03;;;;;;;;;;;;;;;18.28;58.08;101878.69;5034742;28;1393;-59
2021/03/07 12:03:28;;;;;;;;;;;;;;;18.37;58.11;101879.03;5034559;28;784;-56
2021/03/07 12:05:53;;;;;;;;;;;;;;;18.43;57.61;101862.53;5034413;28;1894;-60
2021/03/07 12:08:18;;;;;;;;;;;;;;;18.40;57.80;101860.94;5034462;28;971;-56
2021/03/07 12:10:44;;;;;;;;;;;;;;;18.46;58.27;101851.59;5034167;28;1144;-56
2021/03/07 12:13:09;;;;;;;;;;;;;;;18.51;57.65;101846.78;5034411;28;864;-60
2021/03/07 12:15:34;;;;;;;;;;;;;;;18.50;57.73;101837.03;5034390;28;999;-56
2021/03/07 12:17:59;;;;;;;;;;;;;;;18.49;57.89;101835.31;5034614;28;998;-60
2021/03/07 12:20:25;;;;;;;;;;;;;;;18.57;57.36;101840.16;5034641;28;753;-56
2021/03/07 12:22:50;;;;;;;;;;;;;;;18.60;57.83;101840.81;5034324;28;860;-56
2021/03/07 12:25:15;;;;;;;;;;;;;;;18.60;58.01;101838.13;5034259;28;1905;-56
2021/03/07 12:27:41;;;;;;;;;;;;;;;18.57;58.05;101832.97;5034597;28;820;-59
2021/03/07 12:30:07;;;;;;;;;;;;;;;18.57;57.68;101835.66;5034379;28;804;-60
2021/03/07 12:32:32;;;;;;;;;;;;;;;18.55;57.98;101818.81;5034202;28;1172;-56
2021/03/07 12:34:58;;;;;;;;;;;;;;;18.61;57.99;101823.75;5034341;28;812;-60
2021/03/07 12:37:23;;;;;;;;;;;;;;;18.62;58.33;101819.25;5034455;28;842;-56
2021/03/07 12:39:48;;;;;;;;;;;;;;;18.61;57.72;101829.09;5034276;28;737;-56
2021/03/07 12:42:13;;;;;;;;;;;;;;;18.61;57.45;101814.88;5034331;28;781;-60
2021/03/07 12:44:39;;;;;;;;;;;;;;;18.63;57.55;101811.09;5037905;28;1957;-56
2021/03/07 12:47:04;;;;;;;;;;;;;;;18.60;58.06;101799.75;5038056;28;742;-59
2021/03/07 12:49:30;;;;;;;;;;;;;;;18.63;58.02;101800.38;5038012;28;812;-60
2021/03/07 12:51:55;;;;;;;;;;;;;;;18.63;57.33;101807.56;5037958;28;817;-56
2021/03/07 12:54:20;;;;;;;;;;;;;;;18.56;57.47;101803.59;5037872;28;789;-55
2021/03/07 12:56:46;;;;;;;;;;;;;;;18.60;57.40;101795.25;5037551;28;828;-60